La Grande, Oregon
Current Conditions -  °F | °C
As of 1:15 PM on Tuesday 21 Oct 2014 (Local Time) from KLGD Reporting Station
Overcast Overcast  
Wind Chill: 57°   Ceiling: 5500
Heat Index: 57°   Visibility: 10mi
Dew Point: 32°   Wind: 10mph
Humidity: 38%   Direction: 290°WNW
Pressure: 30"   Gusts: NA
Location:  45.33°N, 118.09°W
Report Text: KLGD 212015Z AUTO 29009KT 10SM OVC055 14/00 A3000 RMK AO1
Loading
Personal Weather Stations






























Interactive Weather Map
Tropical Storm Tracking
New forecast layout! Learn more

10-Day Weather Forecast

Advertisements
Track Severe Weather on mobile